Terminal Aerodrome Forecast
Issued by NWS

Home | Current Version | Previous Version | Text Only | Print | Product List | Glossary On
Versions: 1 2 3 4 5 6 7 8 9 10 11 12 13 14
000
FTUS45 KABQ 270539
TAFFMN
TAF
KFMN 270539Z 2706/2806 06009KT P6SM SCT050 OVC100
     FM270700 VRB05KT P6SM VCSH SCT025 OVC050
      TEMPO 2708/2712 5SM -RA BR SCT015 OVC025
     FM271200 29011KT P6SM VCSH SCT025 OVC035
     FM271500 29015G25KT P6SM OVC050
     FM271800 30025G35KT P6SM SCT050
     FM280200 32011KT P6SM SCT100=

USA.gov is the U.S. government's official web portal to all federal, state and local government web resources and services.